メインページ
METAR-TAF:

METAR-TAF

空港 :

モントリオール・ミラベル国際空港

モントリオール・ミラベル, ケベック州, カナダ

緯度: 45-41N, 経度: 074-02W, 海抜: 82m

現時点の気象観測

当レポートは1時間3分前の13:00(UTC)に作成
西の風 12kt、最大19ktの突風を伴う、南西から西/北西の間で変化する
気温 -2°C
湿度 86%
気圧 994 hPa
視程: 12.9km
高度1000ftの雲はほとんどない
高度2000ftの曇り
弱いにわか雪

METAR: CYMX 151300Z 26012G19KT 220V300 8SM -SHSN FEW010 OVC020 M02/M04 A2935 RMK SF2SC6 CVCTV CLDS EMBD PRESRR SLP945

時間: 09:03 (14:03 UTC)

予報

当レポートは2時間25分前の11:38(UTC)に作成
予報は15日の 12時(UTC)から 16日の 12時(UTC)まで有効
西の風 15kt、最大25ktの突風を伴う
視程: 10km
高度800ftの雲は散在している
高度3000ftの曇り
15日の 12時(UTC)から 15日の 14時(UTC)まで一時的に
視程: 10km
高度800ftの千切れ雲あり
高度3000ftの曇り
小雪
15日の 1400時(UTC)から
西の風 15kt、最大25ktの突風を伴う
視程: 10km
高度2000ftの雲は散在している
高度3000ftの曇り
15日の 14時(UTC)から 15日の 17時(UTC)まで一時的に
高度2000ftの千切れ雲あり
高度3000ftの曇り
15日の 1700時(UTC)から
西の風 15kt、最大25ktの突風を伴う
視程: 10km
高度3000ftの千切れ雲あり
15日の 2300時(UTC)から
西の風 10kt、最大20ktの突風を伴う
視程: 10km
高度3000ftの雲は散在している
16日の 01時(UTC)から 16日の 03時(UTC)まで徐々に
西の風 10kt

TAF: CYMX 151138Z 1512/1612 26015G25KT P6SM SCT008 OVC030 TEMPO 1512/1514 P6SM -SN BKN008 OVC030 FM151400 26015G25KT P6SM SCT020 OVC030 TEMPO 1514/1517 BKN020 OVC030 FM151700 27015G25KT P6SM BKN030 FM152300 27010G20KT P6SM SCT030 BECMG 1601/1603 27010KT RMK NXT FCST BY 151800Z

4,000以上の空港の気象観測と天気予報(METAR報とTAF報)

利用可能な観測所は地図上に黄色い丸と赤い丸で示す。

丸の上にカーソルを重ねると観測所名を参照できる。

次にクリックすると気象観測と天気予報を参照できる。

マップの切り替え:黒色「×」印の緑ボタンをクリックして拡大、「-」印の緑ボタンをクリックして縮小、緑色の三角印をクリックして隣りの地図に切り替え


METAR-TAF: